Time;durP1;ratioP1;P1;durP2;ratioP2;P2;SDS_P1;SDS_P2;PMS_P1;PMS_P2;Temp;Humidity;BMP_temperature;BMP_pressure;BME280_temperature;BME280_humidity;BME280_pressure;Samples;Min_cycle;Max_cycle;Signal;HPM_P1;HPM_P2
2021/05/31 00:01:57;;;;;;;;;;;;;;;7.73;100.00;101819.66;5071013;28;19933;-73
2021/05/31 00:04:23;;;;;;;;;;;;;;;7.70;100.00;101824.25;5071300;28;19924;-73
2021/05/31 00:06:50;;;;;;;;;;;;;;;7.65;100.00;101818.22;5071045;28;19928;-73
2021/05/31 00:09:16;;;;;;;;;;;;;;;7.65;100.00;101822.75;5053313;28;20334;-74
2021/05/31 00:11:43;;;;;;;;;;;;;;;7.56;100.00;101813.28;5071172;28;20026;-74
2021/05/31 00:14:09;;;;;;;;;;;;;;;7.40;100.00;101824.00;5070902;28;19950;-74
2021/05/31 00:16:36;;;;;;;;;;;;;;;7.28;100.00;101811.13;5052873;28;19925;-74
2021/05/31 00:19:03;;;;;;;;;;;;;;;7.28;100.00;101819.22;5070876;28;20015;-74
2021/05/31 00:21:28;;;;;;;;;;;;;;;7.17;100.00;101817.91;5071203;28;19936;-74
2021/05/31 00:23:54;;;;;;;;;;;;;;;7.14;100.00;101811.81;5070678;28;19929;-73
2021/05/31 00:26:20;;;;;;;;;;;;;;;7.11;100.00;101812.84;5070570;28;19931;-73
2021/05/31 00:28:47;;;;;;;;;;;;;;;7.07;100.00;101807.66;5071063;28;19924;-73
2021/05/31 00:31:13;;;;;;;;;;;;;;;7.18;100.00;101799.91;5070817;28;19952;-73
2021/05/31 00:33:39;;;;;;;;;;;;;;;7.10;100.00;101804.81;5052962;28;20319;-73
2021/05/31 00:36:05;;;;;;;;;;;;;;;7.03;100.00;101802.41;5070823;28;19931;-73
2021/05/31 00:38:31;;;;;;;;;;;;;;;7.01;100.00;101801.59;5070725;28;19932;-73
2021/05/31 00:40:57;;;;;;;;;;;;;;;6.97;100.00;101793.75;5070892;28;19924;-73
2021/05/31 00:43:23;;;;;;;;;;;;;;;6.98;100.00;101795.50;5052512;28;19924;-73
2021/05/31 00:45:50;;;;;;;;;;;;;;;6.93;100.00;101793.00;5070765;28;20470;-73
2021/05/31 00:48:16;;;;;;;;;;;;;;;6.95;100.00;101790.22;5070672;28;19928;-74
2021/05/31 00:50:43;;;;;;;;;;;;;;;6.96;100.00;101794.69;5070911;28;19931;-74
2021/05/31 00:53:09;;;;;;;;;;;;;;;6.96;100.00;101791.97;5070480;28;20022;-74
2021/05/31 00:55:35;;;;;;;;;;;;;;;6.96;100.00;101795.56;5070512;28;20447;-74
2021/05/31 00:58:01;;;;;;;;;;;;;;;6.96;100.00;101797.38;5070829;28;19931;-74
2021/05/31 01:00:27;;;;;;;;;;;;;;;6.92;100.00;101795.78;5070635;28;19924;-74
2021/05/31 01:02:56;;;;;;;;;;;;;;;6.92;100.00;101798.47;5070650;28;19948;-74
2021/05/31 01:05:22;;;;;;;;;;;;;;;6.90;100.00;101795.00;5070644;28;19925;-73
2021/05/31 01:07:50;;;;;;;;;;;;;;;6.84;100.00;101783.53;5070211;28;20079;-74
2021/05/31 01:10:18;;;;;;;;;;;;;;;6.77;100.00;101782.06;5052566;28;20026;-74
2021/05/31 01:12:49;;;;;;;;;;;;;;;6.70;100.00;101778.81;5070486;28;20384;-73
2021/05/31 01:15:17;;;;;;;;;;;;;;;6.76;100.00;101779.47;5070580;28;20208;-73
2021/05/31 01:17:46;;;;;;;;;;;;;;;6.83;100.00;101779.09;5070430;28;19925;-73
2021/05/31 01:20:22;;;;;;;;;;;;;;;6.81;100.00;101777.41;5070439;28;19924;-73
2021/05/31 01:22:48;;;;;;;;;;;;;;;6.74;100.00;101782.22;5035969;28;20029;-73
2021/05/31 01:25:26;;;;;;;;;;;;;;;6.74;100.00;101782.22;5069974;28;19924;-74
2021/05/31 01:28:07;;;;;;;;;;;;;;;6.70;100.00;101786.03;5070379;28;20132;-73
2021/05/31 01:30:35;;;;;;;;;;;;;;;6.73;100.00;101780.47;5069943;28;19967;-73
2021/05/31 01:33:04;;;;;;;;;;;;;;;6.73;100.00;101785.00;5070191;28;19935;-73
2021/05/31 01:35:32;;;;;;;;;;;;;;;6.63;100.00;101784.59;5070574;28;19929;-74
2021/05/31 01:37:58;;;;;;;;;;;;;;;6.65;100.00;101790.78;5073775;28;20379;-73
2021/05/31 01:40:24;;;;;;;;;;;;;;;6.70;100.00;101786.03;5074147;28;19978;-73
2021/05/31 01:42:51;;;;;;;;;;;;;;;6.59;100.00;101785.66;5055778;28;19990;-73
2021/05/31 01:45:17;;;;;;;;;;;;;;;6.53;100.00;101779.63;5073569;28;20407;-74
2021/05/31 01:47:44;;;;;;;;;;;;;;;6.59;100.00;101780.25;5073789;28;19982;-74
2021/05/31 01:50:11;;;;;;;;;;;;;;;6.62;100.00;101777.44;5073914;28;19925;-73
2021/05/31 01:52:38;;;;;;;;;;;;;;;6.57;100.00;101782.16;5073812;28;19971;-73
2021/05/31 01:55:04;;;;;;;;;;;;;;;6.60;100.00;101777.50;5073498;28;20018;-74
2021/05/31 01:57:30;;;;;;;;;;;;;;;6.67;100.00;101772.69;5055907;28;19947;-74
2021/05/31 01:59:57;;;;;;;;;;;;;;;6.66;100.00;101776.34;5073485;28;20249;-74
2021/05/31 02:02:23;;;;;;;;;;;;;;;6.50;100.00;101760.88;5073490;28;19924;-74
2021/05/31 02:04:50;;;;;;;;;;;;;;;6.49;100.00;101764.53;5073437;28;19935;-74
2021/05/31 02:07:16;;;;;;;;;;;;;;;6.50;100.00;101762.72;5073265;28;20414;-74
2021/05/31 02:09:43;;;;;;;;;;;;;;;6.48;100.00;101765.47;5055666;28;19925;-74
2021/05/31 02:12:10;;;;;;;;;;;;;;;6.48;100.00;101767.28;5055421;28;20007;-74
2021/05/31 02:14:40;;;;;;;;;;;;;;;6.39;100.00;101762.31;5073351;28;19931;-73
2021/05/31 02:17:10;;;;;;;;;;;;;;;6.37;100.00;101754.31;5055388;28;19928;-73
2021/05/31 02:19:37;;;;;;;;;;;;;;;6.36;100.00;101758.84;5055099;28;19924;-73
2021/05/31 02:22:07;;;;;;;;;;;;;;;6.34;100.00;101763.41;5073315;28;19925;-73
2021/05/31 02:24:35;;;;;;;;;;;;;;;6.40;100.00;101762.28;5072243;28;19924;-74
2021/05/31 02:27:01;;;;;;;;;;;;;;;6.31;100.00;101768.09;5055228;28;19970;-74
2021/05/31 02:29:27;;;;;;;;;;;;;;;6.15;100.00;101766.09;5072960;28;19924;-74
2021/05/31 02:31:53;;;;;;;;;;;;;;;6.16;100.00;101765.16;5072885;28;19931;-74
2021/05/31 02:34:18;;;;;;;;;;;;;;;6.28;100.00;101758.34;5072511;28;20113;-74
2021/05/31 02:36:45;;;;;;;;;;;;;;;6.29;100.00;101759.19;5072452;28;19947;-74
2021/05/31 02:39:12;;;;;;;;;;;;;;;6.17;100.00;101758.84;5072922;28;20049;-74
2021/05/31 02:41:38;;;;;;;;;;;;;;;6.25;100.00;101768.38;5072982;28;19931;-74
2021/05/31 02:44:04;;;;;;;;;;;;;;;6.24;100.00;101756.72;5072252;28;19924;-75
2021/05/31 02:46:30;;;;;;;;;;;;;;;6.23;100.00;101749.56;5072929;28;19924;-75
2021/05/31 02:48:56;;;;;;;;;;;;;;;6.20;100.00;101750.59;5071673;28;19935;-74
2021/05/31 02:51:21;;;;;;;;;;;;;;;6.15;100.00;101755.31;5072930;28;19924;-75
2021/05/31 02:53:47;;;;;;;;;;;;;;;6.17;100.00;101749.84;5072296;28;19986;-75
2021/05/31 02:56:14;;;;;;;;;;;;;;;6.18;100.00;101746.22;5072588;28;20467;-74
2021/05/31 02:58:40;;;;;;;;;;;;;;;6.18;100.00;101757.00;5072518;28;19925;-74
2021/05/31 03:01:06;;;;;;;;;;;;;;;6.14;100.00;101750.88;5072273;28;19924;-74
2021/05/31 03:03:32;;;;;;;;;;;;;;;6.14;100.00;101755.41;5072542;28;19963;-74
2021/05/31 03:05:58;;;;;;;;;;;;;;;6.14;100.00;101758.94;5072111;28;19925;-74
2021/05/31 03:08:24;;;;;;;;;;;;;;;6.21;100.00;101759.53;5072346;28;19970;-74
2021/05/31 03:10:50;;;;;;;;;;;;;;;6.17;100.00;101753.44;5072146;28;19924;-73
2021/05/31 03:13:17;;;;;;;;;;;;;;;6.23;100.00;101751.38;5071998;28;20001;-73
2021/05/31 03:15:43;;;;;;;;;;;;;;;6.32;100.00;101748.25;5072346;28;19925;-73
2021/05/31 03:18:09;;;;;;;;;;;;;;;6.31;100.00;101757.31;5071598;28;19978;-73
2021/05/31 03:20:35;;;;;;;;;;;;;;;6.35;100.00;101753.53;5054345;28;19931;-73
2021/05/31 03:23:01;;;;;;;;;;;;;;;6.42;100.00;101764.91;5053556;28;19947;-74
2021/05/31 03:25:27;;;;;;;;;;;;;;;6.48;100.00;101761.88;5071993;28;19925;-74
2021/05/31 03:27:53;;;;;;;;;;;;;;;6.47;100.00;101762.88;5072008;28;19925;-73
2021/05/31 03:30:21;;;;;;;;;;;;;;;6.46;100.00;101761.97;5071793;28;19935;-74
2021/05/31 03:32:47;;;;;;;;;;;;;;;6.50;100.00;101774.34;5071239;28;19932;-73
2021/05/31 03:35:13;;;;;;;;;;;;;;;6.54;100.00;101770.56;5071740;28;19924;-73
2021/05/31 03:37:40;;;;;;;;;;;;;;;6.62;100.00;101772.03;5071588;28;19970;-73
2021/05/31 03:40:06;;;;;;;;;;;;;;;6.72;100.00;101767.06;5071931;28;20023;-74
2021/05/31 03:42:32;;;;;;;;;;;;;;;6.75;100.00;101767.81;5071392;28;19978;-74
2021/05/31 03:44:58;;;;;;;;;;;;;;;6.79;100.00;101766.69;5071487;28;19932;-74
2021/05/31 03:47:25;;;;;;;;;;;;;;;6.93;100.00;101765.16;5071574;28;19924;-74
2021/05/31 03:49:51;;;;;;;;;;;;;;;6.98;100.00;101763.97;5053589;28;19925;-74
2021/05/31 03:52:17;;;;;;;;;;;;;;;7.04;100.00;101765.47;5053202;28;19924;-73
2021/05/31 03:54:43;;;;;;;;;;;;;;;7.10;100.00;101757.06;5071034;28;20019;-73
2021/05/31 03:57:09;;;;;;;;;;;;;;;7.11;100.00;101760.63;5071521;28;20373;-74
2021/05/31 03:59:34;;;;;;;;;;;;;;;7.22;100.00;101757.44;5071119;28;19967;-73
2021/05/31 04:02:01;;;;;;;;;;;;;;;7.32;100.00;101756.88;5071213;28;19931;-72
2021/05/31 04:04:34;;;;;;;;;;;;;;;7.37;100.00;101754.78;5071244;28;20022;-73
2021/05/31 04:12:30;;;;;;;;;;;;;;;7.67;100.00;101746.06;4997661;28;19929;-72
2021/05/31 04:14:56;;;;;;;;;;;;;;;7.76;100.00;101751.91;5053007;28;19929;-72
2021/05/31 04:17:21;;;;;;;;;;;;;;;7.90;100.00;101752.06;5071083;28;19931;-72
2021/05/31 04:19:49;;;;;;;;;;;;;;;8.02;100.00;101751.41;5071104;28;20303;-73
2021/05/31 04:22:15;;;;;;;;;;;;;;;8.10;100.00;101745.56;5073953;28;19924;-73
2021/05/31 04:24:40;;;;;;;;;;;;;;;8.23;100.00;101744.91;5070127;28;19931;-73
2021/05/31 04:27:06;;;;;;;;;;;;;;;8.36;100.00;101754.97;5054154;28;20416;-73
2021/05/31 04:29:32;;;;;;;;;;;;;;;8.48;100.00;101750.72;5056058;28;19931;-73
2021/05/31 04:31:58;;;;;;;;;;;;;;;8.64;100.00;101747.16;5091178;28;19928;-73
2021/05/31 04:34:24;;;;;;;;;;;;;;;8.76;100.00;101746.44;5070780;28;19943;-74
2021/05/31 04:36:51;;;;;;;;;;;;;;;8.91;100.00;101751.94;5071566;28;20017;-74
2021/05/31 04:39:17;;;;;;;;;;;;;;;9.03;100.00;101754.81;5072085;28;19935;-74
2021/05/31 04:41:43;;;;;;;;;;;;;;;9.13;100.00;101757.84;5088470;28;20006;-74
2021/05/31 04:44:09;;;;;;;;;;;;;;;9.21;100.00;101755.56;5085772;28;19928;-74
2021/05/31 04:46:35;;;;;;;;;;;;;;;9.34;100.00;101752.13;5070858;28;19924;-74
2021/05/31 04:49:03;;;;;;;;;;;;;;;9.48;100.00;101749.44;5073038;28;19932;-74
2021/05/31 04:51:29;;;;;;;;;;;;;;;9.57;100.00;101752.56;5090910;28;19970;-74
2021/05/31 04:53:57;;;;;;;;;;;;;;;9.75;100.00;101762.28;5088465;28;19967;-74
2021/05/31 04:56:23;;;;;;;;;;;;;;;9.90;100.00;101755.06;5059051;28;20387;-75
2021/05/31 04:58:49;;;;;;;;;;;;;;;10.00;100.00;101755.38;5071069;28;19928;-74
2021/05/31 05:01:14;;;;;;;;;;;;;;;10.18;100.00;101756.03;5070406;28;19929;-74
2021/05/31 05:03:40;;;;;;;;;;;;;;;10.15;100.00;101754.38;5070155;28;19959;-74
2021/05/31 05:06:06;;;;;;;;;;;;;;;10.44;100.00;101753.53;5070448;28;20379;-73
2021/05/31 05:08:32;;;;;;;;;;;;;;;10.47;100.00;101758.78;5067553;28;19924;-74
2021/05/31 05:10:59;;;;;;;;;;;;;;;10.74;100.00;101756.09;5088198;28;19928;-74
2021/05/31 05:13:25;;;;;;;;;;;;;;;10.89;100.00;101760.53;5091062;28;19924;-74
2021/05/31 05:15:51;;;;;;;;;;;;;;;11.03;100.00;101758.72;5094611;28;20247;-75
2021/05/31 05:18:17;;;;;;;;;;;;;;;11.20;100.00;101752.16;5089943;28;19924;-75
2021/05/31 05:20:42;;;;;;;;;;;;;;;11.43;100.00;101752.44;5085541;28;19925;-76
2021/05/31 05:23:08;;;;;;;;;;;;;;;11.54;100.00;101745.31;5038978;28;20371;-76
2021/05/31 05:25:34;;;;;;;;;;;;;;;11.67;100.00;101739.00;5075514;28;19971;-76
2021/05/31 05:28:01;;;;;;;;;;;;;;;11.81;100.00;101746.19;5092783;28;19994;-75
2021/05/31 05:30:29;;;;;;;;;;;;;;;11.86;100.00;101742.16;5060313;28;19924;-76
2021/05/31 05:32:59;;;;;;;;;;;;;;;12.16;100.00;101741.00;5072997;28;20023;-75
2021/05/31 05:35:28;;;;;;;;;;;;;;;12.41;100.00;101743.78;5075592;28;19935;-75
2021/05/31 05:38:12;;;;;;;;;;;;;;;12.67;100.00;101745.47;5081918;28;19924;-74
2021/05/31 05:41:07;;;;;;;;;;;;;;;12.96;100.00;101755.16;5094657;28;19928;-74
2021/05/31 05:43:51;;;;;;;;;;;;;;;13.19;100.00;101743.41;5077703;28;19925;-74
2021/05/31 05:49:06;;;;;;;;;;;;;;;13.81;100.00;101748.72;5038605;28;19935;-76
2021/05/31 05:51:32;;;;;;;;;;;;;;;14.06;100.00;101748.50;5067239;28;19924;-75
2021/05/31 05:53:59;;;;;;;;;;;;;;;14.39;100.00;101751.34;5055746;28;19932;-77
2021/05/31 05:56:25;;;;;;;;;;;;;;;14.38;100.00;101760.56;5073958;28;19924;-76
2021/05/31 05:58:53;;;;;;;;;;;;;;;14.99;100.00;101756.50;5093901;28;19947;-76
2021/05/31 06:01:19;;;;;;;;;;;;;;;14.87;100.00;101759.28;5066009;28;20028;-75
2021/05/31 06:03:47;;;;;;;;;;;;;;;14.89;100.00;101756.44;5085785;28;19929;-75
2021/05/31 06:06:13;;;;;;;;;;;;;;;15.55;100.00;101760.91;5091710;28;19931;-76
2021/05/31 06:08:39;;;;;;;;;;;;;;;16.12;100.00;101753.22;5069403;28;19925;-75
2021/05/31 06:11:05;;;;;;;;;;;;;;;16.78;97.74;101751.03;5084434;28;19924;-76
2021/05/31 06:13:31;;;;;;;;;;;;;;;17.10;89.15;101753.56;5055487;28;20302;-76
2021/05/31 06:16:00;;;;;;;;;;;;;;;17.75;85.64;101750.25;5075072;28;19931;-76
2021/05/31 06:18:27;;;;;;;;;;;;;;;18.06;79.43;101745.44;5089359;28;19924;-76
2021/05/31 06:20:53;;;;;;;;;;;;;;;18.69;77.71;101748.47;5080608;28;20042;-77
2021/05/31 06:23:19;;;;;;;;;;;;;;;18.97;72.21;101751.25;5069946;28;19925;-76
2021/05/31 06:25:45;;;;;;;;;;;;;;;19.36;71.04;101748.19;5073441;28;19932;-77
2021/05/31 06:28:11;;;;;;;;;;;;;;;19.71;67.24;101751.94;5074279;28;20580;-76
2021/05/31 06:30:37;;;;;;;;;;;;;;;19.99;65.01;101746.31;5073471;28;19928;-76
2021/05/31 06:33:04;;;;;;;;;;;;;;;19.99;61.80;101749.94;5074001;28;19975;-75
2021/05/31 06:35:30;;;;;;;;;;;;;;;20.09;61.32;101741.56;5038121;28;19934;-75
2021/05/31 06:37:56;;;;;;;;;;;;;;;20.18;58.43;101746.09;5080900;28;19924;-75
2021/05/31 06:40:22;;;;;;;;;;;;;;;20.56;58.16;101741.13;5085219;28;20025;-76
2021/05/31 06:42:49;;;;;;;;;;;;;;;20.94;56.46;101740.75;5083893;28;19949;-76
2021/05/31 06:45:20;;;;;;;;;;;;;;;21.07;54.40;101741.13;5055085;28;19925;-76
2021/05/31 06:47:46;;;;;;;;;;;;;;;21.19;56.13;101740.78;5072886;28;20306;-75
2021/05/31 06:50:14;;;;;;;;;;;;;;;21.06;52.07;101735.78;5085962;28;19928;-75
2021/05/31 06:52:40;;;;;;;;;;;;;;;21.26;51.33;101735.44;5082196;28;19928;-76
2021/05/31 06:55:06;;;;;;;;;;;;;;;21.39;52.81;101730.28;5072361;28;19954;-76
2021/05/31 06:57:32;;;;;;;;;;;;;;;21.83;51.45;101732.72;5054791;28;20387;-75
2021/05/31 06:59:58;;;;;;;;;;;;;;;22.07;49.53;101730.94;5089609;28;19932;-75
2021/05/31 07:02:24;;;;;;;;;;;;;;;22.16;50.18;101727.09;5079693;28;19930;-75
2021/05/31 07:04:51;;;;;;;;;;;;;;;22.33;49.27;101724.31;5071989;28;19928;-75
2021/05/31 07:07:19;;;;;;;;;;;;;;;22.72;48.70;101727.09;5040623;28;19925;-75
2021/05/31 07:09:45;;;;;;;;;;;;;;;22.70;46.01;101736.59;5070595;28;19931;-75
2021/05/31 07:12:12;;;;;;;;;;;;;;;23.21;46.85;101733.38;5051966;28;19924;-75
2021/05/31 07:14:41;;;;;;;;;;;;;;;23.31;45.19;101736.78;5072354;28;19968;-75
2021/05/31 07:17:08;;;;;;;;;;;;;;;23.05;45.72;101739.91;5072462;28;19931;-76
2021/05/31 07:19:34;;;;;;;;;;;;;;;23.35;45.60;101738.13;5054007;28;19999;-76
2021/05/31 07:22:00;;;;;;;;;;;;;;;23.07;44.21;101737.78;5071937;28;19939;-75
2021/05/31 07:24:27;;;;;;;;;;;;;;;22.94;44.57;101732.84;5053507;28;20191;-75
2021/05/31 07:26:56;;;;;;;;;;;;;;;23.33;46.23;101728.28;5071432;28;19928;-75
2021/05/31 07:29:22;;;;;;;;;;;;;;;23.06;45.50;101730.53;5072451;28;20034;-76
2021/05/31 07:31:48;;;;;;;;;;;;;;;23.22;42.96;101727.69;5070893;28;19938;-74
2021/05/31 07:34:14;;;;;;;;;;;;;;;23.63;41.76;101732.00;5070558;28;20449;-75
2021/05/31 07:36:39;;;;;;;;;;;;;;;23.59;42.23;101718.75;5070987;28;19932;-75
2021/05/31 07:39:05;;;;;;;;;;;;;;;23.51;41.59;101723.28;5071451;28;19991;-74
2021/05/31 07:41:32;;;;;;;;;;;;;;;24.14;41.42;101711.09;5071937;28;20024;-75
2021/05/31 07:43:58;;;;;;;;;;;;;;;24.44;41.12;101714.72;5070673;28;19948;-75
2021/05/31 07:46:24;;;;;;;;;;;;;;;24.52;39.10;101711.84;5053845;28;19924;-75
2021/05/31 07:48:51;;;;;;;;;;;;;;;24.64;41.77;101711.34;5071752;28;19928;-75
2021/05/31 07:51:18;;;;;;;;;;;;;;;24.40;40.61;101713.41;5071410;28;19924;-75
2021/05/31 07:53:44;;;;;;;;;;;;;;;24.77;40.63;101707.91;5069663;28;19935;-74
2021/05/31 07:56:12;;;;;;;;;;;;;;;24.94;38.24;101711.31;5070298;28;19978;-75
2021/05/31 07:58:39;;;;;;;;;;;;;;;24.90;38.84;101705.28;5070989;28;19924;-74
2021/05/31 08:01:05;;;;;;;;;;;;;;;24.57;37.23;101709.34;5071310;28;19924;-74
2021/05/31 08:03:30;;;;;;;;;;;;;;;24.30;38.67;101708.13;5071206;28;19977;-75
2021/05/31 08:05:56;;;;;;;;;;;;;;;24.28;38.10;101709.34;5069354;28;19924;-75
2021/05/31 08:08:22;;;;;;;;;;;;;;;24.09;38.49;101700.56;5071247;28;19967;-75
2021/05/31 08:10:48;;;;;;;;;;;;;;;24.54;39.87;101703.31;5051617;28;19971;-76
2021/05/31 08:13:15;;;;;;;;;;;;;;;24.72;37.00;101705.72;5065266;28;21564;-75
2021/05/31 08:15:43;;;;;;;;;;;;;;;24.44;36.34;101706.41;5059179;28;20416;-74
2021/05/31 08:18:10;;;;;;;;;;;;;;;24.41;37.17;101701.22;5050699;28;19932;-75
2021/05/31 08:20:36;;;;;;;;;;;;;;;24.89;36.66;101703.53;5058306;28;19924;-75
2021/05/31 08:23:01;;;;;;;;;;;;;;;24.99;34.64;101704.09;5069823;28;19997;-75
2021/05/31 08:25:27;;;;;;;;;;;;;;;25.56;34.38;101691.22;5070664;28;20395;-76
2021/05/31 08:27:53;;;;;;;;;;;;;;;26.31;34.94;101700.91;5070342;28;20455;-76
2021/05/31 08:30:20;;;;;;;;;;;;;;;26.51;36.10;101696.31;5052171;28;20030;-75
2021/05/31 08:32:47;;;;;;;;;;;;;;;26.11;32.65;101693.34;5051970;28;20335;-75
2021/05/31 08:35:13;;;;;;;;;;;;;;;25.96;32.95;101698.13;5053019;28;19931;-76
2021/05/31 08:37:39;;;;;;;;;;;;;;;26.35;33.85;101696.66;5070066;28;19948;-74
2021/05/31 08:40:06;;;;;;;;;;;;;;;26.79;35.59;101700.97;5060222;28;20146;-75
2021/05/31 08:42:34;;;;;;;;;;;;;;;26.43;31.75;101696.50;5068776;28;19933;-75
2021/05/31 08:45:00;;;;;;;;;;;;;;;27.54;33.99;101698.09;5069843;28;19951;-75
2021/05/31 08:47:27;;;;;;;;;;;;;;;27.10;29.50;101701.44;5069652;28;20388;-75
2021/05/31 08:49:55;;;;;;;;;;;;;;;26.32;30.61;101689.56;5069695;28;19925;-75
2021/05/31 08:52:21;;;;;;;;;;;;;;;26.75;30.95;101687.66;5070204;28;19925;-75
2021/05/31 08:54:47;;;;;;;;;;;;;;;27.00;31.27;101688.78;5069822;28;20142;-75
2021/05/31 08:57:13;;;;;;;;;;;;;;;27.02;30.39;101691.38;5070398;28;19932;-75
2021/05/31 08:59:39;;;;;;;;;;;;;;;27.71;29.69;101683.72;5070511;28;19971;-75
2021/05/31 09:02:05;;;;;;;;;;;;;;;27.81;28.29;101681.34;5070010;28;19982;-74
2021/05/31 09:04:31;;;;;;;;;;;;;;;27.77;28.40;101685.66;5052154;28;19928;-75
2021/05/31 09:07:00;;;;;;;;;;;;;;;27.83;27.71;101687.59;5069911;28;19925;-74
2021/05/31 09:09:38;;;;;;;;;;;;;;;27.54;27.89;101678.59;5051723;28;19924;-75
2021/05/31 09:12:07;;;;;;;;;;;;;;;27.67;27.36;101685.22;5069356;28;19935;-75
2021/05/31 09:14:33;;;;;;;;;;;;;;;27.54;27.88;101686.09;5069947;28;19924;-75
2021/05/31 09:16:59;;;;;;;;;;;;;;;27.28;29.36;101684.97;5069799;28;19925;-75
2021/05/31 09:19:24;;;;;;;;;;;;;;;27.81;28.09;101681.34;5051889;28;19978;-76
2021/05/31 09:21:50;;;;;;;;;;;;;;;27.96;29.12;101681.09;5069484;28;19928;-76
2021/05/31 09:24:22;;;;;;;;;;;;;;;28.34;29.47;101676.72;5069191;28;19929;-75
2021/05/31 09:26:50;;;;;;;;;;;;;;;28.20;26.94;101668.41;5051284;28;19924;-75
2021/05/31 09:29:16;;;;;;;;;;;;;;;28.11;27.09;101675.28;5070106;28;19924;-75
2021/05/31 09:31:42;;;;;;;;;;;;;;;27.89;28.18;101672.75;5069551;28;19931;-75
2021/05/31 09:34:08;;;;;;;;;;;;;;;28.51;28.31;101669.56;5069665;28;19928;-75
2021/05/31 09:36:46;;;;;;;;;;;;;;;28.48;27.00;101661.63;5069911;28;19935;-74
2021/05/31 09:39:12;;;;;;;;;;;;;;;28.22;27.07;101659.81;5069633;28;19924;-75
2021/05/31 09:41:40;;;;;;;;;;;;;;;28.06;27.43;101655.56;5069621;28;19940;-76
2021/05/31 09:44:06;;;;;;;;;;;;;;;26.43;26.99;101646.41;5069201;28;19932;-76
2021/05/31 09:46:36;;;;;;;;;;;;;;;27.21;29.98;101662.66;5068179;28;20449;-75
2021/05/31 09:49:09;;;;;;;;;;;;;;;27.04;29.73;101653.00;5051156;28;20457;-75
2021/05/31 09:51:35;;;;;;;;;;;;;;;27.02;28.46;101658.81;5069095;28;20384;-75
2021/05/31 09:54:00;;;;;;;;;;;;;;;27.40;29.20;101652.63;5052434;28;19928;-75
2021/05/31 09:56:26;;;;;;;;;;;;;;;27.32;29.30;101654.75;5052809;28;19928;-77
2021/05/31 09:59:01;;;;;;;;;;;;;;;27.23;29.32;101649.41;5074742;28;19947;-75
2021/05/31 10:01:33;;;;;;;;;;;;;;;27.63;26.84;101644.91;5074807;28;19931;-76
2021/05/31 10:04:13;;;;;;;;;;;;;;;27.35;29.12;101648.75;5073251;28;19924;-77
2021/05/31 10:06:45;;;;;;;;;;;;;;;26.94;28.52;101641.41;5074568;28;19924;-78
2021/05/31 10:09:11;;;;;;;;;;;;;;;27.98;27.77;101636.25;5074042;28;19924;-76
2021/05/31 10:11:37;;;;;;;;;;;;;;;28.76;25.68;101638.13;5074929;28;19924;-79
2021/05/31 10:14:05;;;;;;;;;;;;;;;28.80;25.75;101630.16;5074606;28;19936;-79
2021/05/31 10:16:32;;;;;;;;;;;;;;;28.17;25.89;101624.19;5075136;28;19929;-80
2021/05/31 10:18:57;;;;;;;;;;;;;;;28.63;26.44;101627.84;5072112;28;19983;-79
2021/05/31 10:21:24;;;;;;;;;;;;;;;28.99;27.93;101631.09;5073534;28;19924;-79
2021/05/31 10:23:50;;;;;;;;;;;;;;;28.49;25.67;101626.19;5072121;28;20333;-77
2021/05/31 10:26:18;;;;;;;;;;;;;;;28.76;26.35;101629.72;5074258;28;19925;-75
2021/05/31 10:28:45;;;;;;;;;;;;;;;29.35;25.74;101629.53;5072755;28;19924;-75
2021/05/31 10:31:12;;;;;;;;;;;;;;;29.11;22.62;101626.47;5072011;28;19924;-75
2021/05/31 10:33:39;;;;;;;;;;;;;;;28.97;23.53;101622.06;5053148;28;20296;-75
2021/05/31 10:36:09;;;;;;;;;;;;;;;28.68;23.57;101625.25;5051686;28;20317;-75
2021/05/31 10:38:37;;;;;;;;;;;;;;;29.08;23.13;101618.56;5052445;28;19931;-76
2021/05/31 10:41:10;;;;;;;;;;;;;;;29.30;23.84;101615.38;5045774;28;19928;-76
2021/05/31 10:43:41;;;;;;;;;;;;;;;29.01;23.04;101613.03;5071423;28;19924;-75
2021/05/31 10:46:07;;;;;;;;;;;;;;;28.39;23.82;101608.00;5054459;28;19999;-76
2021/05/31 10:48:42;;;;;;;;;;;;;;;28.02;26.01;101601.28;5071611;28;20368;-77
2021/05/31 10:51:12;;;;;;;;;;;;;;;27.99;24.51;101602.53;5053092;28;19976;-77
2021/05/31 10:53:38;;;;;;;;;;;;;;;28.44;25.45;101610.13;5072380;28;19926;-76
2021/05/31 10:56:05;;;;;;;;;;;;;;;28.21;23.62;101603.16;5071436;28;19935;-79
2021/05/31 10:58:32;;;;;;;;;;;;;;;29.23;24.16;101593.91;5072490;28;19935;-78
2021/05/31 11:01:00;;;;;;;;;;;;;;;28.95;24.44;101596.31;5071613;28;19924;-78
2021/05/31 11:03:26;;;;;;;;;;;;;;;29.12;26.28;101593.81;5054266;28;20021;-79
2021/05/31 11:05:54;;;;;;;;;;;;;;;28.71;24.88;101591.28;5070897;28;19959;-79
2021/05/31 11:08:23;;;;;;;;;;;;;;;28.94;22.54;101594.59;5070774;28;19978;-76
2021/05/31 11:10:54;;;;;;;;;;;;;;;29.16;23.39;101586.69;5067960;28;19970;-76
2021/05/31 11:13:20;;;;;;;;;;;;;;;29.33;24.67;101587.84;5071520;28;19985;-78
2021/05/31 11:15:46;;;;;;;;;;;;;;;29.31;26.10;101577.97;5071498;28;19925;-77
2021/05/31 11:18:21;;;;;;;;;;;;;;;28.85;25.12;101585.63;5072162;28;20441;-77
2021/05/31 11:20:47;;;;;;;;;;;;;;;28.32;25.03;101582.06;5071170;28;20380;-77
2021/05/31 11:23:14;;;;;;;;;;;;;;;28.61;27.14;101584.47;5071786;28;19968;-77
2021/05/31 11:25:40;;;;;;;;;;;;;;;28.30;26.00;101577.75;5053190;28;19929;-77
2021/05/31 11:28:06;;;;;;;;;;;;;;;28.13;25.34;101577.41;5070723;28;19925;-77
2021/05/31 11:30:33;;;;;;;;;;;;;;;26.58;25.77;101571.09;5071664;28;20327;-78
2021/05/31 11:33:00;;;;;;;;;;;;;;;26.94;27.76;101569.88;5052946;28;19928;-77
2021/05/31 11:35:26;;;;;;;;;;;;;;;27.77;25.94;101562.94;5070937;28;19931;-78
2021/05/31 11:37:53;;;;;;;;;;;;;;;27.93;26.60;101564.38;5071478;28;19925;-77
2021/05/31 11:40:22;;;;;;;;;;;;;;;28.32;26.96;101564.47;5053693;28;19928;-77
2021/05/31 11:42:49;;;;;;;;;;;;;;;28.63;26.96;101562.75;5070990;28;19928;-77
2021/05/31 11:45:17;;;;;;;;;;;;;;;28.90;26.79;101560.66;5070659;28;19937;-77
2021/05/31 11:47:42;;;;;;;;;;;;;;;28.68;26.99;101555.44;5070549;28;19929;-76
2021/05/31 11:50:16;;;;;;;;;;;;;;;29.09;25.44;101557.91;5071105;28;20403;-76
2021/05/31 11:52:43;;;;;;;;;;;;;;;29.47;25.50;101548.56;5071138;28;20391;-76
2021/05/31 11:55:13;;;;;;;;;;;;;;;29.61;23.51;101552.94;5071188;28;19932;-77
2021/05/31 11:57:40;;;;;;;;;;;;;;;29.37;21.79;101554.66;5070415;28;19924;-77
2021/05/31 12:00:06;;;;;;;;;;;;;;;28.99;23.75;101542.53;5070996;28;19966;-77
2021/05/31 12:02:39;;;;;;;;;;;;;;;28.62;23.24;101541.50;5070859;28;19931;-78
2021/05/31 12:05:05;;;;;;;;;;;;;;;29.11;23.76;101542.63;5070390;28;20014;-77
2021/05/31 12:07:31;;;;;;;;;;;;;;;29.43;23.13;101542.56;5070572;28;20296;-78
2021/05/31 12:09:57;;;;;;;;;;;;;;;29.53;22.98;101530.84;5069401;28;19936;-76
2021/05/31 12:12:24;;;;;;;;;;;;;;;29.73;20.37;101530.59;5070485;28;19970;-76
2021/05/31 12:14:52;;;;;;;;;;;;;;;30.08;21.34;101537.53;5069954;28;19932;-75
2021/05/31 12:17:19;;;;;;;;;;;;;;;30.39;23.17;101544.84;5070578;28;19924;-75
2021/05/31 12:19:45;;;;;;;;;;;;;;;30.34;21.67;101553.13;5070423;28;20403;-76
2021/05/31 12:22:12;;;;;;;;;;;;;;;29.80;20.33;101536.13;5070037;28;19931;-74
2021/05/31 12:24:41;;;;;;;;;;;;;;;29.93;21.84;101538.81;5052400;28;19931;-75
2021/05/31 12:27:07;;;;;;;;;;;;;;;30.37;21.05;101544.22;5070981;28;19928;-74
2021/05/31 12:29:34;;;;;;;;;;;;;;;30.26;21.10;101536.66;5071153;28;19924;-77
2021/05/31 12:32:04;;;;;;;;;;;;;;;30.38;20.77;101526.34;5069726;28;20354;-74
2021/05/31 12:34:30;;;;;;;;;;;;;;;30.62;18.89;101523.66;5069348;28;20302;-74
2021/05/31 12:36:56;;;;;;;;;;;;;;;30.58;19.04;101523.28;5070386;28;19928;-74
2021/05/31 12:39:22;;;;;;;;;;;;;;;30.32;19.31;101524.47;5070261;28;19936;-74
2021/05/31 12:41:48;;;;;;;;;;;;;;;30.59;20.76;101519.38;5069657;28;19928;-74
2021/05/31 12:44:14;;;;;;;;;;;;;;;31.10;19.88;101519.00;5066854;28;19925;-74